首页
METAR-TAF:

METAR-TAF

机场 :

Greenbrier Valley Airport

Lewisburg, 西維吉尼亞州, 美国

纬度: 37-52N, 经度: 080-24W, 海拔: 702米

当前天气观测

该预报发布于37分钟前的15:59 UTC
风速7节,风向西北
温度 5°C
湿度 75%
气压 1021 hPa
能見度: 16.1公里
阴天层高于2000英尺

METAR: KLWB 201559Z 32007KT 10SM OVC020 05/01 A3014

时间: 11:36 (16:36 UTC)

预报

该预报发布于1小时和23分钟前的15:13 UTC
预报有效从20日的 15点(UTC)到 21日的 12点(UTC)
风速7节,风向西转西北
能見度: 10公里
阴天层高于2200英尺
从 20日的 1700点(UTC)
风速10节,风向西转西北
能見度: 10公里
散云层高于4000英尺
从 21日的 0600点(UTC)
风速3节,风向多变
能見度: 10公里
散云层高于2500英尺
从 21日的 0800点(UTC)
风速2节,风向多变
能見度: 8.0公里
多云层高于2500英尺
轻雾
从 21日的 1000点(UTC)
风速节,风向
能見度: 1.6公里
多云层高于1500英尺
轻雾

TAF: KLWB 201513Z 2015/2112 30007KT P6SM OVC022 FM201700 30010KT P6SM SCT040 FM210600 VRB03KT P6SM SCT025 FM210800 VRB02KT 5SM BR BKN025 FM211000 00000KT 1SM BR BKN015

超过4000个机场的气象观测和天气预报(METAR&TAF报告)。

可查询的气象台以黄色和红色小点在地图上表示。

将鼠标移到小点上方,可查看气象台名称。

然后点击查看天气观测和预报。

如需切换地图:点击带黑十字的绿色按钮放大地图;点击带横线的绿色按钮缩小地图;或者点击绿色箭头查看邻近地区的地图。


METAR-TAF: